Terminal Aerodrome Forecast
Issued by NWS Bismarck, ND

Home | Current Version | Previous Version | Text Only | Print | Product List | Glossary Off
Versions: 1 2 3 4 5 6 7 8 9 10 11 12 13 14 15 16 17 18

000
FTUS43 KBIS 071346 AAB
TAFBIS
TAF AMD
KBIS 071346Z 0714/0812 31025G35KT 3SM -SHSN BLSN BKN025 OVC035
     FM071800 32031G43KT 5SM -SHSN BLSN OVC025
     FM072100 32032G45KT P6SM OVC025
     FM080000 32028G39KT P6SM BKN015
     FM080900 32022G31KT P6SM SCT015=

USA.gov is the U.S. government's official web portal to all federal, state and local government web resources and services.